createdAt,value
2022-10-05T00:00:13.154Z,11.00
2022-10-05T00:02:41.177Z,11.10
2022-10-05T00:05:21.702Z,11.10
2022-10-05T00:07:49.663Z,11.00
2022-10-05T00:10:19.777Z,11.00
2022-10-05T00:12:48.709Z,10.90
2022-10-05T00:15:19.677Z,10.90
2022-10-05T00:17:47.425Z,10.90
2022-10-05T00:20:22.393Z,10.90
2022-10-05T00:22:52.690Z,10.80
2022-10-05T00:25:22.656Z,10.80
2022-10-05T00:27:56.517Z,10.90
2022-10-05T00:30:25.849Z,10.80
2022-10-05T00:32:59.303Z,10.80
2022-10-05T00:35:30.735Z,10.80
2022-10-05T00:37:58.485Z,10.80
2022-10-05T00:40:37.562Z,10.90
2022-10-05T00:43:22.894Z,10.90
2022-10-05T00:45:55.768Z,10.90
2022-10-05T00:48:33.497Z,10.80
2022-10-05T00:51:15.238Z,10.80
2022-10-05T00:53:51.564Z,10.70
2022-10-05T00:56:35.791Z,10.60
2022-10-05T00:59:12.334Z,10.50
2022-10-05T01:01:46.556Z,10.50
2022-10-05T01:04:21.329Z,10.40
2022-10-05T01:07:08.149Z,10.40
2022-10-05T01:09:42.881Z,10.40
2022-10-05T01:12:19.750Z,10.30
2022-10-05T01:14:53.693Z,10.40
2022-10-05T01:17:28.788Z,10.30
2022-10-05T01:20:10.990Z,10.30
2022-10-05T01:22:59.811Z,10.30
2022-10-05T01:25:36.134Z,10.20
2022-10-05T01:28:09.413Z,10.20
2022-10-05T01:30:47.210Z,10.10
2022-10-05T01:33:23.473Z,10.00
2022-10-05T01:36:01.397Z,10.10
2022-10-05T01:38:41.880Z,10.10
2022-10-05T01:41:20.349Z,10.00
2022-10-05T01:43:53.178Z,9.90
2022-10-05T01:46:28.041Z,9.90
2022-10-05T01:49:07.669Z,9.90
2022-10-05T01:51:44.333Z,9.90
2022-10-05T01:54:23.383Z,9.90
2022-10-05T01:56:58.869Z,9.90
2022-10-05T01:59:42.037Z,10.00
2022-10-05T02:02:15.155Z,10.10
2022-10-05T02:05:03.333Z,10.10
2022-10-05T02:07:36.861Z,10.00
2022-10-05T02:10:13.193Z,10.10
2022-10-05T02:12:41.710Z,10.10
2022-10-05T02:15:15.525Z,10.10
2022-10-05T02:17:48.871Z,10.10
2022-10-05T02:20:24.651Z,10.20
2022-10-05T02:22:55.496Z,10.30
2022-10-05T02:25:29.545Z,10.30
2022-10-05T02:28:03.240Z,10.20
2022-10-05T02:30:35.481Z,10.20
2022-10-05T02:33:10.206Z,10.20
2022-10-05T02:35:37.953Z,10.20
2022-10-05T02:38:12.757Z,10.20
2022-10-05T02:40:52.429Z,10.10
2022-10-05T02:43:29.905Z,10.10
2022-10-05T02:46:06.983Z,10.00
2022-10-05T02:48:45.473Z,10.00
2022-10-05T02:51:21.386Z,9.90
2022-10-05T02:54:01.415Z,9.80
2022-10-05T02:56:37.210Z,9.80
2022-10-05T02:59:11.117Z,9.90
2022-10-05T03:01:48.656Z,9.90
2022-10-05T03:04:25.460Z,9.80
2022-10-05T03:07:03.112Z,9.80
2022-10-05T03:09:38.262Z,9.80
2022-10-05T03:12:15.790Z,9.60
2022-10-05T03:14:54.122Z,9.60
2022-10-05T03:17:26.383Z,9.60
2022-10-05T03:20:17.493Z,9.60
2022-10-05T03:22:51.818Z,9.60
2022-10-05T03:25:43.380Z,9.60
2022-10-05T03:28:17.996Z,9.50
2022-10-05T03:30:52.837Z,9.50
2022-10-05T03:33:31.598Z,9.50
2022-10-05T03:36:07.190Z,9.40
2022-10-05T03:38:40.633Z,9.40
2022-10-05T03:41:17.831Z,9.50
2022-10-05T03:44:01.797Z,9.40
2022-10-05T03:46:39.904Z,9.40
2022-10-05T03:49:17.440Z,9.40
2022-10-05T03:51:49.513Z,9.40
2022-10-05T03:54:24.186Z,9.30
2022-10-05T03:56:56.497Z,9.30
2022-10-05T03:59:32.626Z,9.20
2022-10-05T04:02:05.469Z,9.30
2022-10-05T04:04:39.725Z,9.30
2022-10-05T04:07:15.912Z,9.20
2022-10-05T04:09:48.283Z,9.20
2022-10-05T04:12:24.137Z,9.20
2022-10-05T04:14:58.025Z,9.20
2022-10-05T04:17:33.691Z,9.10
2022-10-05T04:20:05.317Z,9.10
2022-10-05T04:22:39.632Z,9.10
2022-10-05T04:25:17.534Z,9.10
2022-10-05T04:27:51.897Z,9.10
2022-10-05T04:30:22.126Z,9.00
2022-10-05T04:32:57.102Z,9.00
2022-10-05T04:35:45.939Z,8.80
2022-10-05T04:38:28.159Z,8.80
2022-10-05T04:41:10.104Z,8.80
2022-10-05T04:43:49.997Z,8.80
2022-10-05T04:46:31.226Z,8.80
2022-10-05T04:49:22.328Z,8.80
2022-10-05T04:52:01.466Z,8.80
2022-10-05T04:54:43.143Z,8.80
2022-10-05T04:57:18.591Z,8.80
2022-10-05T05:00:02.758Z,8.80
2022-10-05T05:02:48.337Z,8.80
2022-10-05T05:05:25.583Z,8.80
2022-10-05T05:08:11.041Z,8.70
2022-10-05T05:10:54.362Z,8.70
2022-10-05T05:13:38.896Z,8.70
2022-10-05T05:16:13.233Z,8.50
2022-10-05T05:18:54.985Z,8.60
2022-10-05T05:21:34.046Z,8.60
2022-10-05T05:24:10.137Z,8.50
2022-10-05T05:26:54.917Z,8.60
2022-10-05T05:29:32.346Z,8.70
2022-10-05T05:32:13.113Z,8.60
2022-10-05T05:34:53.446Z,8.70
2022-10-05T05:37:30.077Z,8.70
2022-10-05T05:40:08.304Z,8.70
2022-10-05T05:42:44.761Z,8.70
2022-10-05T05:45:18.456Z,8.70
2022-10-05T05:47:53.751Z,8.70
2022-10-05T05:50:34.464Z,8.70
2022-10-05T05:53:11.657Z,8.70
2022-10-05T05:55:46.582Z,8.70
2022-10-05T05:58:21.504Z,8.70
2022-10-05T06:00:53.642Z,8.60
2022-10-05T06:03:25.943Z,8.70
2022-10-05T06:05:57.385Z,8.80
2022-10-05T06:08:33.591Z,8.80
2022-10-05T06:11:15.193Z,8.80
2022-10-05T06:13:43.711Z,8.80
2022-10-05T06:16:20.439Z,8.80
2022-10-05T06:18:56.116Z,8.90
2022-10-05T06:21:32.818Z,8.80
2022-10-05T06:24:05.205Z,8.90
2022-10-05T06:27:03.199Z,9.10
2022-10-05T06:29:47.861Z,9.30
2022-10-05T06:32:25.893Z,9.50
2022-10-05T06:35:02.526Z,10.00
2022-10-05T06:37:45.740Z,10.40
2022-10-05T06:40:28.073Z,11.20
2022-10-05T06:43:06.905Z,12.20
2022-10-05T06:45:59.966Z,13.20
2022-10-05T06:49:02.823Z,14.30
2022-10-05T06:51:57.121Z,15.00
2022-10-05T06:54:43.537Z,15.80
2022-10-05T06:57:25.339Z,16.90
2022-10-05T07:00:01.644Z,17.60
2022-10-05T07:02:45.546Z,18.40
2022-10-05T07:05:43.902Z,18.00
2022-10-05T07:08:18.442Z,19.20
2022-10-05T07:10:59.750Z,20.30
2022-10-05T07:13:43.370Z,21.00
2022-10-05T07:16:20.638Z,21.70
2022-10-05T07:19:04.511Z,22.30
2022-10-05T07:21:42.825Z,22.60
2022-10-05T07:24:24.890Z,22.90
2022-10-05T07:27:02.735Z,23.20
2022-10-05T07:29:36.954Z,23.30
2022-10-05T07:32:15.262Z,23.60
2022-10-05T07:34:54.374Z,23.40
2022-10-05T07:37:47.887Z,23.70
2022-10-05T07:40:20.818Z,23.40
2022-10-05T07:43:03.002Z,23.90
2022-10-05T07:45:39.836Z,24.30
2022-10-05T07:48:14.661Z,24.70
2022-10-05T07:50:57.618Z,24.80
2022-10-05T07:53:29.391Z,25.10
2022-10-05T07:56:02.222Z,25.50
2022-10-05T07:58:35.230Z,25.90
2022-10-05T08:01:09.125Z,25.80
2022-10-05T08:03:48.343Z,26.10
2022-10-05T08:06:32.913Z,26.40
2022-10-05T08:09:05.237Z,25.80
2022-10-05T08:11:43.576Z,26.50
2022-10-05T08:14:17.421Z,26.40
2022-10-05T08:16:49.873Z,27.20
2022-10-05T08:19:24.267Z,27.30
2022-10-05T08:21:59.049Z,27.60
2022-10-05T08:24:39.740Z,28.40
2022-10-05T08:27:12.995Z,28.50
2022-10-05T08:29:48.159Z,29.00
2022-10-05T08:32:22.494Z,28.80
2022-10-05T08:34:56.417Z,29.30
2022-10-05T08:37:28.431Z,29.00
2022-10-05T08:40:11.213Z,29.40
2022-10-05T08:42:58.129Z,29.90
2022-10-05T08:46:00.649Z,30.50
2022-10-05T08:48:54.586Z,29.60
2022-10-05T08:51:38.202Z,29.80
2022-10-05T08:54:23.677Z,30.10
2022-10-05T08:57:07.766Z,30.70
2022-10-05T08:59:59.547Z,31.60
2022-10-05T09:02:38.477Z,32.10
2022-10-05T09:05:36.109Z,32.20
2022-10-05T09:08:30.909Z,31.90
2022-10-05T09:11:05.754Z,32.10
2022-10-05T09:13:54.301Z,32.80
2022-10-05T09:16:40.245Z,33.20
2022-10-05T09:19:34.932Z,34.00
2022-10-05T09:22:15.020Z,34.70
2022-10-05T09:24:55.106Z,35.20
2022-10-05T09:27:35.942Z,35.60
2022-10-05T09:30:23.229Z,35.80
2022-10-05T09:33:13.405Z,36.10
2022-10-05T09:36:10.933Z,36.60
2022-10-05T09:39:04.724Z,36.80
2022-10-05T09:41:52.729Z,36.70
2022-10-05T09:44:43.758Z,36.70
2022-10-05T09:47:37.965Z,36.60
2022-10-05T09:50:31.449Z,36.40
2022-10-05T09:53:14.198Z,36.20
2022-10-05T09:56:05.079Z,36.60
2022-10-05T09:59:02.486Z,36.30
2022-10-05T10:01:53.592Z,36.70
2022-10-05T10:04:35.023Z,36.50
2022-10-05T10:07:26.032Z,36.60
2022-10-05T10:10:09.403Z,36.40
2022-10-05T10:12:51.785Z,37.00
2022-10-05T10:15:41.173Z,37.60
2022-10-05T10:18:26.149Z,37.60
2022-10-05T10:21:02.808Z,37.00
2022-10-05T10:23:45.514Z,37.40
2022-10-05T10:26:36.066Z,37.40
2022-10-05T10:29:31.493Z,37.00
2022-10-05T10:32:15.666Z,37.10
2022-10-05T10:35:05.217Z,36.60
2022-10-05T10:37:41.267Z,36.50
2022-10-05T10:40:26.981Z,36.70
2022-10-05T10:43:21.878Z,36.50
2022-10-05T10:45:59.662Z,36.60
2022-10-05T10:48:49.534Z,35.90
2022-10-05T10:51:36.418Z,34.50
2022-10-05T10:54:29.410Z,33.80
2022-10-05T10:57:06.373Z,34.50
2022-10-05T11:00:00.729Z,35.10
2022-10-05T11:02:51.409Z,36.20
2022-10-05T11:05:31.009Z,36.50
2022-10-05T11:08:28.078Z,35.50
2022-10-05T11:11:20.630Z,36.60
2022-10-05T11:14:05.344Z,36.80
2022-10-05T11:17:04.362Z,36.80
2022-10-05T11:20:03.673Z,36.90
2022-10-05T11:22:55.445Z,36.30
2022-10-05T11:25:48.002Z,36.30
2022-10-05T11:28:35.651Z,36.60
2022-10-05T11:31:27.182Z,36.50
2022-10-05T11:34:21.277Z,36.50
2022-10-05T11:37:06.775Z,37.70
2022-10-05T11:39:41.358Z,37.50
2022-10-05T11:42:36.825Z,36.60
2022-10-05T11:45:21.588Z,35.90
2022-10-05T11:48:14.107Z,34.30
2022-10-05T11:50:51.005Z,32.60
2022-10-05T11:53:25.277Z,31.60
2022-10-05T11:56:04.593Z,30.30
2022-10-05T11:58:39.067Z,29.40
2022-10-05T12:01:16.467Z,28.40
2022-10-05T12:03:58.339Z,27.40
2022-10-05T12:06:41.687Z,26.90
2022-10-05T12:09:26.226Z,26.40
2022-10-05T12:12:07.693Z,26.10
2022-10-05T12:14:50.896Z,25.80
2022-10-05T12:17:27.887Z,25.30
2022-10-05T12:20:00.669Z,25.20
2022-10-05T12:22:35.611Z,25.20
2022-10-05T12:25:21.490Z,25.10
2022-10-05T12:27:55.121Z,25.10
2022-10-05T12:30:34.918Z,25.10
2022-10-05T12:33:09.718Z,25.00
2022-10-05T12:35:48.278Z,24.90
2022-10-05T12:38:25.531Z,25.00
2022-10-05T12:41:05.151Z,24.90
2022-10-05T12:43:41.357Z,24.90
2022-10-05T12:46:19.580Z,24.90
2022-10-05T12:49:11.502Z,24.90
2022-10-05T12:51:43.498Z,24.90
2022-10-05T12:54:22.907Z,24.90
2022-10-05T12:56:56.127Z,24.90
2022-10-05T12:59:35.840Z,24.90
2022-10-05T13:02:15.972Z,24.90
2022-10-05T13:04:52.013Z,24.90
2022-10-05T13:07:36.415Z,24.90
2022-10-05T13:10:15.968Z,24.90
2022-10-05T13:12:54.713Z,24.90
2022-10-05T13:15:28.805Z,24.90
2022-10-05T13:18:06.961Z,25.00
2022-10-05T13:20:41.825Z,25.00
2022-10-05T13:23:15.345Z,24.90
2022-10-05T13:25:51.610Z,24.90
2022-10-05T13:28:25.907Z,24.80
2022-10-05T13:31:03.688Z,24.80
2022-10-05T13:33:51.807Z,24.90
2022-10-05T13:36:29.881Z,24.90
2022-10-05T13:39:04.318Z,24.90
2022-10-05T13:41:49.433Z,24.90
2022-10-05T13:44:26.816Z,24.90
2022-10-05T13:47:02.662Z,24.80
2022-10-05T13:49:39.330Z,24.80
2022-10-05T13:52:22.173Z,24.90
2022-10-05T13:54:59.129Z,24.80
2022-10-05T13:57:44.940Z,24.80
2022-10-05T14:00:22.739Z,24.80
2022-10-05T14:02:56.485Z,24.80
2022-10-05T14:05:27.715Z,24.70
2022-10-05T14:07:58.371Z,24.70
2022-10-05T14:10:40.733Z,24.60
2022-10-05T14:13:22.089Z,24.70
2022-10-05T14:16:05.458Z,24.70
2022-10-05T14:18:37.311Z,24.70
2022-10-05T14:21:19.229Z,24.70
2022-10-05T14:23:48.498Z,24.80
2022-10-05T14:26:31.595Z,24.80
2022-10-05T14:29:02.185Z,24.80
2022-10-05T14:31:33.957Z,24.70
2022-10-05T14:34:24.926Z,24.70
2022-10-05T14:36:59.290Z,24.70
2022-10-05T14:39:29.172Z,24.60
2022-10-05T14:41:56.886Z,24.60
2022-10-05T14:44:30.430Z,24.50
2022-10-05T14:47:02.612Z,24.50
2022-10-05T14:49:33.113Z,24.40
2022-10-05T14:52:25.542Z,24.40
2022-10-05T14:55:00.801Z,24.30
2022-10-05T14:57:37.413Z,24.30
2022-10-05T15:00:12.484Z,24.30
2022-10-05T15:03:02.747Z,24.30
2022-10-05T15:05:36.048Z,24.40
2022-10-05T15:08:16.197Z,24.40
2022-10-05T15:10:50.635Z,24.30
2022-10-05T15:13:21.197Z,24.30
2022-10-05T15:15:54.634Z,24.30
2022-10-05T15:18:32.216Z,24.30
2022-10-05T15:21:23.954Z,24.30
2022-10-05T15:23:57.358Z,24.30
2022-10-05T15:26:36.409Z,24.30
2022-10-05T15:29:14.053Z,24.30
2022-10-05T15:31:52.709Z,24.20
2022-10-05T15:34:29.349Z,24.20
2022-10-05T15:37:03.015Z,24.10
2022-10-05T15:39:41.393Z,24.10
2022-10-05T15:42:14.502Z,24.10
2022-10-05T15:44:55.321Z,24.10
2022-10-05T15:47:34.682Z,24.10
2022-10-05T15:50:14.145Z,24.00
2022-10-05T15:52:47.162Z,24.00
2022-10-05T15:55:25.969Z,23.90
2022-10-05T15:58:07.752Z,23.90
2022-10-05T16:00:42.491Z,23.90
2022-10-05T16:03:18.339Z,23.70
2022-10-05T16:06:04.942Z,23.70
2022-10-05T16:09:01.598Z,23.60
2022-10-05T16:11:48.561Z,23.50
2022-10-05T16:14:23.537Z,23.50
2022-10-05T16:17:06.159Z,23.30
2022-10-05T16:19:44.129Z,23.30
2022-10-05T16:22:22.123Z,23.20
2022-10-05T16:25:07.326Z,23.10
2022-10-05T16:27:46.546Z,23.10
2022-10-05T16:30:18.064Z,22.90
2022-10-05T16:32:51.877Z,22.80
2022-10-05T16:35:29.098Z,22.80
2022-10-05T16:38:10.214Z,22.70
2022-10-05T16:40:44.018Z,22.60
2022-10-05T16:43:27.767Z,22.40
2022-10-05T16:46:04.245Z,22.30
2022-10-05T16:48:38.633Z,22.30
2022-10-05T16:51:20.441Z,22.10
2022-10-05T16:53:59.037Z,21.80
2022-10-05T16:56:34.142Z,21.70
2022-10-05T16:59:29.449Z,21.50
2022-10-05T17:02:06.875Z,21.30
2022-10-05T17:04:44.032Z,21.10
2022-10-05T17:07:36.671Z,20.90
2022-10-05T17:10:37.090Z,20.70
2022-10-05T17:13:16.294Z,20.50
2022-10-05T17:16:00.613Z,20.20
2022-10-05T17:18:46.345Z,19.80
2022-10-05T17:21:18.805Z,19.60
2022-10-05T17:23:54.449Z,19.40
2022-10-05T17:26:44.817Z,19.30
2022-10-05T17:29:18.146Z,19.10
2022-10-05T17:32:11.011Z,19.00
2022-10-05T17:34:40.134Z,18.90
2022-10-05T17:37:35.426Z,18.80
2022-10-05T17:40:32.955Z,18.80
2022-10-05T17:43:04.489Z,18.50
2022-10-05T17:45:55.974Z,18.40
2022-10-05T17:48:41.249Z,18.30
2022-10-05T17:51:32.778Z,18.20
2022-10-05T17:54:22.229Z,17.90
2022-10-05T17:57:21.020Z,17.90
2022-10-05T18:00:00.324Z,17.80
2022-10-05T18:02:43.767Z,17.70
2022-10-05T18:05:26.021Z,17.50
2022-10-05T18:08:31.819Z,17.40
2022-10-05T18:11:17.086Z,17.40
2022-10-05T18:13:47.778Z,17.30
2022-10-05T18:16:50.385Z,17.20
2022-10-05T18:19:22.629Z,17.30
2022-10-05T18:22:26.074Z,17.30
2022-10-05T18:25:03.751Z,17.20
2022-10-05T18:27:49.301Z,17.10
2022-10-05T18:30:21.716Z,17.10
2022-10-05T18:33:18.243Z,17.00
2022-10-05T18:35:57.121Z,17.00
2022-10-05T18:38:35.162Z,16.90
2022-10-05T18:41:08.913Z,16.80
2022-10-05T18:43:42.697Z,16.60
2022-10-05T18:46:22.172Z,16.50
2022-10-05T18:49:01.414Z,16.40
2022-10-05T18:51:35.453Z,16.40
2022-10-05T18:54:17.675Z,16.30
2022-10-05T18:56:50.534Z,16.10
2022-10-05T18:59:32.084Z,16.10
2022-10-05T19:02:11.361Z,16.00
2022-10-05T19:04:51.004Z,15.90
2022-10-05T19:07:28.665Z,15.90
2022-10-05T19:10:09.754Z,15.80
2022-10-05T19:12:50.303Z,15.80
2022-10-05T19:15:27.552Z,15.70
2022-10-05T19:18:14.967Z,15.60
2022-10-05T19:20:50.431Z,15.60
2022-10-05T19:23:33.074Z,15.50
2022-10-05T19:26:13.722Z,15.50
2022-10-05T19:28:52.956Z,15.40
2022-10-05T19:31:31.328Z,15.50
2022-10-05T19:34:13.324Z,15.50
2022-10-05T19:36:55.130Z,15.50
2022-10-05T19:39:32.138Z,15.50
2022-10-05T19:42:17.082Z,15.40
2022-10-05T19:44:56.526Z,15.40
2022-10-05T19:47:37.628Z,15.20
2022-10-05T19:50:21.956Z,15.20
2022-10-05T19:52:52.072Z,15.10
2022-10-05T19:55:26.705Z,15.10
2022-10-05T19:57:59.746Z,15.20
2022-10-05T20:00:31.196Z,15.20
2022-10-05T20:03:16.974Z,15.10
2022-10-05T20:05:45.678Z,15.00
2022-10-05T20:08:18.165Z,15.00
2022-10-05T20:10:47.021Z,14.90
2022-10-05T20:13:23.821Z,14.90
2022-10-05T20:16:21.652Z,14.90
2022-10-05T20:19:03.764Z,14.90
2022-10-05T20:21:45.150Z,14.90
2022-10-05T20:24:15.223Z,14.90
2022-10-05T20:27:00.123Z,14.80
2022-10-05T20:29:30.397Z,14.80
2022-10-05T20:31:58.785Z,14.80
2022-10-05T20:34:26.726Z,14.70
2022-10-05T20:36:54.509Z,14.70
2022-10-05T20:39:22.288Z,14.70
2022-10-05T20:41:50.025Z,14.70
2022-10-05T20:44:17.761Z,14.60
2022-10-05T20:46:47.211Z,14.50
2022-10-05T20:49:14.952Z,14.50
2022-10-05T20:51:43.256Z,14.50
2022-10-05T20:54:11.009Z,14.50
2022-10-05T20:56:38.646Z,14.50
2022-10-05T20:59:06.546Z,14.40
2022-10-05T21:01:34.284Z,14.30
2022-10-05T21:04:07.833Z,14.30
2022-10-05T21:06:35.506Z,14.30
2022-10-05T21:09:03.243Z,14.30
2022-10-05T21:11:30.935Z,14.40
2022-10-05T21:14:03.362Z,14.30
2022-10-05T21:16:34.007Z,14.20
2022-10-05T21:19:03.257Z,14.20
2022-10-05T21:21:30.946Z,14.00
2022-10-05T21:24:00.560Z,14.10
2022-10-05T21:26:30.065Z,14.10
2022-10-05T21:28:58.432Z,14.20
2022-10-05T21:31:26.988Z,14.10
2022-10-05T21:33:55.242Z,14.10
2022-10-05T21:36:24.933Z,14.10
2022-10-05T21:38:54.362Z,14.00
2022-10-05T21:41:22.817Z,13.90
2022-10-05T21:43:50.575Z,13.80
2022-10-05T21:46:21.016Z,13.90
2022-10-05T21:48:50.165Z,14.00
2022-10-05T21:51:19.577Z,14.10
2022-10-05T21:53:52.207Z,14.10
2022-10-05T21:56:23.253Z,14.00
2022-10-05T21:58:52.468Z,14.00
2022-10-05T22:01:25.459Z,14.00
2022-10-05T22:03:53.192Z,14.10
2022-10-05T22:06:20.971Z,14.20
2022-10-05T22:08:50.036Z,14.20
2022-10-05T22:11:18.691Z,14.20
2022-10-05T22:13:48.510Z,14.20
2022-10-05T22:16:18.171Z,14.20
2022-10-05T22:18:46.206Z,14.30
2022-10-05T22:21:15.243Z,14.30
2022-10-05T22:23:44.797Z,14.30
2022-10-05T22:26:17.438Z,14.30
2022-10-05T22:28:46.744Z,14.20
2022-10-05T22:31:15.365Z,14.20
2022-10-05T22:33:43.122Z,14.20
2022-10-05T22:36:11.134Z,14.10
2022-10-05T22:38:39.803Z,14.10
2022-10-05T22:41:11.026Z,14.10
2022-10-05T22:43:40.565Z,14.10
2022-10-05T22:46:10.095Z,14.10
2022-10-05T22:48:38.406Z,14.10
2022-10-05T22:51:06.758Z,14.10
2022-10-05T22:53:34.730Z,14.10
2022-10-05T22:56:05.945Z,14.10
2022-10-05T22:58:33.676Z,14.10
2022-10-05T23:01:04.110Z,14.10
2022-10-05T23:03:32.396Z,14.10
2022-10-05T23:06:03.048Z,14.10
2022-10-05T23:08:31.400Z,14.00
2022-10-05T23:11:03.601Z,14.10
2022-10-05T23:13:32.282Z,14.10
2022-10-05T23:16:08.370Z,14.10
2022-10-05T23:18:36.410Z,14.00
2022-10-05T23:21:07.228Z,14.00
2022-10-05T23:23:36.671Z,14.00
2022-10-05T23:26:05.969Z,14.10
2022-10-05T23:28:34.443Z,14.10
2022-10-05T23:31:04.254Z,14.20
2022-10-05T23:33:33.575Z,14.10
2022-10-05T23:36:02.401Z,14.20
2022-10-05T23:38:30.897Z,14.10
2022-10-05T23:40:59.694Z,14.20
2022-10-05T23:43:28.428Z,14.30
2022-10-05T23:45:56.652Z,14.40
2022-10-05T23:48:24.801Z,14.50
2022-10-05T23:50:55.629Z,14.40
2022-10-05T23:53:23.717Z,14.40
2022-10-05T23:55:52.066Z,14.40
2022-10-05T23:58:20.090Z,14.20
